AirNav   TITAN Aviation Fuels
 
 1494 users online  

4MO4 Liberty Landing Airport
Liberty, Missouri, USA

GOING TO LIBERTY?


FAA INFORMATION EFFECTIVE 03 NOVEMBER 2022

Location

FAA Identifier: 4MO4
Lat/Long: 39-13-00.0130N 094-20-00.8150W
39-13.000217N 094-20.013583W
39.2166703,-94.3335597
(estimated)
Elevation: 720 ft. / 219 m (estimated)
Variation: 05E (1985)
From city: 3 miles SW of LIBERTY, MO
Time zone: UTC -6 (UTC -5 during Daylight Saving Time)
Zip code: 64068

Airport Operations

Airport use: Private use. Permission required prior to landing
Activation date: 01/1965
Control tower: no
ARTCC: KANSAS CITY CENTER
FSS: COLUMBIA FLIGHT SERVICE STATION
Attendance: CONTINUOUS
Wind indicator: yes
Segmented circle: yes

Airport Communications

WX AWOS-3T at GPH (7 nm N): 120.275 (816-407-3399)
WX ASOS at MKC (13 nm SW): 120.75 (816-329-2843)
WX ASOS at LXT (16 nm S): 124.175 (816-347-9807)
WX ASOS at MCI (18 nm W): PHONE 816-329-2808

Nearby radio navigation aids

VOR radial/distance  VOR name  Freq  Var
ANXr300/12.0NAPOLEON VORTAC114.0007E
MCIr097/19.2KANSAS CITY VORTAC113.2505E
BQSr218/32.7BRAYMER VOR/DME115.3503E

Airport Services

Runway Information

Runway 4/22

Dimensions: 2400 x 36 ft. / 732 x 11 m
Surface: gravel
RUNWAY 4  RUNWAY 22
Traffic pattern: rightleft
Obstructions: road, 50 ft. from runway, 8:1 slope to cleartrees, 600 ft. from runway, 16:1 slope to clear

Airport Ownership and Management from official FAA records

Ownership: Privately-owned
Owner: ERRIE W RAASCH III
17607 NE 52ND ST
LIBERTY, MO 64068
Phone (816) 516-2253
CELL: 816-516-2253
Manager: ERRIE RAASCH
17607 NE 52ND ST
LIBERTY, MO 64068
Phone (816) 516-2253

Airport Operational Statistics

Aircraft based on the field: 18
Single engine airplanes: 8
Ultralights: 10
    
Aircraft operations: avg 136/week
63% local general aviation
35% transient general aviation
1% air taxi

Additional Remarks

FOR CD CTC KANSAS CITY APCH AT 816-329-2710.

Instrument Procedures

There are no published instrument procedures at 4MO4.

Some nearby airports with instrument procedures:

KGPH - Midwest National Air Center Airport (7 nm N)
3EX - Excelsior Springs Memorial Airport (10 nm NE)
KMKC - Charles B Wheeler Downtown Airport (13 nm SW)
3GV - East Kansas City Airport (13 nm SE)
KLXT - Lee's Summit Municipal Airport (16 nm S)
KMCI - Kansas City International Airport (18 nm W)
 
Loc | Ops | Rwys | IFR | FBO | Links
Com | Nav | Svcs | Stats | Notes
Area around 4MO4 (Liberty Landing Airport)
 
Road maps at: MapQuest Bing Google
 
Aerial photo
WARNING: Photo may not be current or correct
Aerial photo of 4MO4 (Liberty Landing Airport)
Do you have a better or more recent aerial photo of Liberty Landing Airport that you would like to share? If so, please send us your photo.

 
Sectional chart

 
Airport distance calculator
Flying to Liberty Landing Airport? Find the distance to fly.

From to 4MO4

Sunrise and sunset
Times for 29-Nov-2022
 Local
(UTC-6)
 Zulu
(UTC)
Morning civil twilight06:4712:47
Sunrise07:1713:17
Sunset16:5522:55
Evening civil twilight17:2423:24

Current date and time
Zulu (UTC)  29-Nov-2022 17:22:50
Local (UTC-6)  29-Nov-2022 11:22:50
 
METAR
KGPH 
7nm N 
291655Z AUTO 23018G24KT 10SM BKN037 15/06 A2947 RMK AO2
KMKC 
14nm SW 
291654Z 25022G32KT 10SM FEW037 14/05 A2948 RMK AO2 PK WND 22037/1556 RAE26 SLP981 P0000 T01440050
KLXT 
15nm S 
291653Z AUTO 23021G33KT 10SM FEW034 15/07 A2948 RMK AO2 PK WND 23037/1643 SLP981 T01500067
KMCI 
19nm W 
291653Z 25018G28KT 10SM SCT035 SCT140 SCT200 15/04 A2947 RMK AO2 PK WND 24031/1600 SLP978 T01500039
TAF
KMKC 
14nm SW 
291130Z 2912/3012 18014G23KT P6SM BKN160 FM291600 24013G25KT P6SM FEW170 FM291830 29016G25KT P6SM BKN025 FM300100 32015G23KT P6SM SCT050
KMCI 
19nm W 
291130Z 2912/3012 17016G27KT P6SM BKN140 FM291600 23016G25KT P6SM FEW120 FM291800 28017G25KT P6SM BKN022 FM300100 32015G24KT P6SM SCT070
NOTAMs
Click for the latest NOTAMs
NOTAMs are issued by the DoD/FAA and will open in a separate window not controlled by AirNav.

 

 
 

Would you like to see your business listed on this page?

 If your business provides an interesting product or service to pilots, flight crews, aircraft, or users of the Liberty Landing Airport, you should consider listing it here.  To start the listing process, click on the button below
 
Add a business
 

Other Pages about Liberty Landing Airport

Update a link
 
Copyright © AirNav, LLC. All rights reserved. Privacy Policy  Contact